ASA927 KBUR-KSFO
Flight info
| Callsign | ASA927 |
|---|---|
| Flight time | 0h 51m |
| Altitude | 34000 |
| Route | OROSZ2 COREZ MAKRS SERFR SERFR4 |
| Aircraft | B739/M-SDE2E3FGHIRWXY/LB1 |
Departure
| Time | 2026-05-04 06:57 |
|---|---|
| Airport | Hollywood Burbank/Bob Hope Airport (KBUR) |
Arrival
| Time | 2026-05-04 07:49 |
|---|---|
| Airport | San Francisco International Airport (KSFO) |
| Time | Latitude | Longitude | Altitude | Speed | Heading |
|---|---|---|---|---|---|
| 2026-05-04 06:40 | 34.19663 | -118.34983 | 715 ft | 0 kts | 181° |
| 2026-05-04 06:44 | 34.19676 | -118.34982 | 718 ft | 2 kts | 181° |
| 2026-05-04 06:44 | 34.19692 | -118.34982 | 719 ft | 2 kts | 181° |
| 2026-05-04 06:45 | 34.19709 | -118.34981 | 718 ft | 2 kts | 179° |
| 2026-05-04 06:45 | 34.19725 | -118.34984 | 718 ft | 2 kts | 144° |
| 2026-05-04 06:45 | 34.19732 | -118.34995 | 719 ft | 1 kts | 90° |
| 2026-05-04 06:45 | 34.19732 | -118.35000 | 719 ft | 0 kts | 86° |
| 2026-05-04 06:48 | 34.19728 | -118.35082 | 718 ft | 0 kts | 86° |
| 2026-05-04 06:50 | 34.19866 | -118.35134 | 720 ft | 8 kts | 274° |
| 2026-05-04 06:51 | 34.19870 | -118.35202 | 723 ft | 8 kts | 274° |
| 2026-05-04 06:51 | 34.19875 | -118.35272 | 721 ft | 8 kts | 274° |
| 2026-05-04 06:51 | 34.19879 | -118.35342 | 724 ft | 8 kts | 272° |
| 2026-05-04 06:51 | 34.19877 | -118.35411 | 727 ft | 8 kts | 266° |
| 2026-05-04 06:52 | 34.19874 | -118.35477 | 727 ft | 8 kts | 268° |
| 2026-05-04 06:52 | 34.19890 | -118.35535 | 730 ft | 8 kts | 311° |
| 2026-05-04 06:52 | 34.19956 | -118.35564 | 728 ft | 17 kts | 345° |
| 2026-05-04 06:52 | 34.20076 | -118.35598 | 730 ft | 17 kts | 348° |
| 2026-05-04 06:53 | 34.20192 | -118.35628 | 733 ft | 17 kts | 348° |
| 2026-05-04 06:53 | 34.20310 | -118.35658 | 733 ft | 19 kts | 348° |
| 2026-05-04 06:53 | 34.20446 | -118.35694 | 733 ft | 21 kts | 346° |
| 2026-05-04 06:53 | 34.20595 | -118.35740 | 732 ft | 23 kts | 347° |
| 2026-05-04 06:54 | 34.20752 | -118.35779 | 736 ft | 23 kts | 348° |
| 2026-05-04 06:54 | 34.20904 | -118.35823 | 740 ft | 22 kts | 347° |
| 2026-05-04 06:54 | 34.21052 | -118.35864 | 741 ft | 21 kts | 347° |
| 2026-05-04 06:54 | 34.21156 | -118.35909 | 745 ft | 15 kts | 319° |
| 2026-05-04 06:55 | 34.21206 | -118.35995 | 744 ft | 11 kts | 303° |
| 2026-05-04 06:55 | 34.21188 | -118.36032 | 744 ft | 6 kts | 180° |
| 2026-05-04 06:55 | 34.21142 | -118.36022 | 744 ft | 10 kts | 168° |
| 2026-05-04 06:55 | 34.20815 | -118.35933 | 736 ft | 91 kts | 167° |
| 2026-05-04 06:56 | 34.19951 | -118.35699 | 731 ft | 162 kts | 166° |
| 2026-05-04 06:57 | 34.17503 | -118.43169 | 5105 ft | 272 kts | 322° |
| 2026-05-04 06:58 | 34.18990 | -118.44574 | 6011 ft | 272 kts | 320° |
| 2026-05-04 06:58 | 34.20464 | -118.46019 | 6892 ft | 272 kts | 319° |
| 2026-05-04 06:58 | 34.21918 | -118.47506 | 7695 ft | 274 kts | 317° |
| 2026-05-04 06:58 | 34.23370 | -118.49038 | 8460 ft | 279 kts | 316° |
| 2026-05-04 06:59 | 34.24833 | -118.50614 | 9202 ft | 283 kts | 315° |
| 2026-05-04 06:59 | 34.26284 | -118.52200 | 9965 ft | 287 kts | 314° |
| 2026-05-04 06:59 | 34.27788 | -118.53859 | 10462 ft | 300 kts | 314° |
| 2026-05-04 06:59 | 34.29396 | -118.55646 | 10638 ft | 324 kts | 314° |
| 2026-05-04 07:01 | 34.43928 | -118.68214 | 13796 ft | 400 kts | 330° |
| 2026-05-04 07:01 | 34.46379 | -118.69839 | 14340 ft | 401 kts | 326° |
| 2026-05-04 07:02 | 34.48746 | -118.71567 | 14916 ft | 402 kts | 324° |
| 2026-05-04 07:02 | 34.51143 | -118.73364 | 15486 ft | 401 kts | 321° |
| 2026-05-04 07:02 | 34.53238 | -118.75473 | 16490 ft | 384 kts | 308° |
| 2026-05-04 07:02 | 34.55041 | -118.77841 | 17190 ft | 382 kts | 306° |
| 2026-05-04 07:03 | 34.56859 | -118.80235 | 17780 ft | 387 kts | 308° |
| 2026-05-04 07:03 | 34.58661 | -118.82620 | 18170 ft | 391 kts | 304° |
| 2026-05-04 07:03 | 34.60392 | -118.85201 | 18607 ft | 395 kts | 303° |
| 2026-05-04 07:03 | 34.62142 | -118.87778 | 19198 ft | 395 kts | 304° |
| 2026-05-04 07:04 | 34.63976 | -118.90293 | 19800 ft | 396 kts | 305° |
| 2026-05-04 07:04 | 34.65817 | -118.92744 | 20288 ft | 399 kts | 306° |
| 2026-05-04 07:04 | 34.67693 | -118.95231 | 20828 ft | 398 kts | 305° |
| 2026-05-04 07:04 | 34.69525 | -118.97771 | 21227 ft | 399 kts | 304° |
| 2026-05-04 07:05 | 34.71407 | -119.00278 | 21689 ft | 402 kts | 304° |
| 2026-05-04 07:05 | 34.73283 | -119.02768 | 22206 ft | 404 kts | 304° |
| 2026-05-04 07:05 | 34.75184 | -119.05314 | 22686 ft | 405 kts | 304° |
| 2026-05-04 07:05 | 34.77076 | -119.07871 | 23151 ft | 406 kts | 303° |
| 2026-05-04 07:06 | 34.80880 | -119.12955 | 23936 ft | 412 kts | 305° |
| 2026-05-04 07:06 | 34.82765 | -119.15567 | 24132 ft | 401 kts | 290° |
| 2026-05-04 07:06 | 34.83611 | -119.18658 | 24500 ft | 384 kts | 282° |
| 2026-05-04 07:07 | 34.85031 | -119.21483 | 24695 ft | 418 kts | 307° |
| 2026-05-04 07:08 | 34.99342 | -119.39517 | 26929 ft | 428 kts | 302° |
| 2026-05-04 07:09 | 35.01337 | -119.42236 | 27245 ft | 430 kts | 302° |
| 2026-05-04 07:09 | 35.03343 | -119.44965 | 27520 ft | 432 kts | 302° |
| 2026-05-04 07:09 | 35.05363 | -119.47711 | 27812 ft | 434 kts | 302° |
| 2026-05-04 07:09 | 35.07364 | -119.50433 | 28137 ft | 436 kts | 302° |
| 2026-05-04 07:10 | 35.09397 | -119.53200 | 28380 ft | 438 kts | 302° |
| 2026-05-04 07:10 | 35.11445 | -119.55994 | 28663 ft | 439 kts | 302° |
| 2026-05-04 07:12 | 35.25367 | -119.74984 | 32330 ft | 410 kts | 300° |
| 2026-05-04 07:12 | 35.27261 | -119.77588 | 32734 ft | 409 kts | 300° |
| 2026-05-04 07:12 | 35.29151 | -119.80190 | 33103 ft | 408 kts | 299° |
| 2026-05-04 07:12 | 35.31036 | -119.82785 | 33535 ft | 406 kts | 299° |
| 2026-05-04 07:13 | 35.32909 | -119.85362 | 33996 ft | 402 kts | 298° |
| 2026-05-04 07:13 | 35.36627 | -119.90490 | 34034 ft | 402 kts | 298° |
| 2026-05-04 07:14 | 35.45846 | -120.03219 | 34050 ft | 398 kts | 299° |
| 2026-05-04 07:15 | 35.49528 | -120.08317 | 34065 ft | 399 kts | 298° |
| 2026-05-04 07:15 | 35.53187 | -120.13393 | 34073 ft | 400 kts | 298° |
| 2026-05-04 07:16 | 35.56900 | -120.18553 | 34079 ft | 403 kts | 299° |
| 2026-05-04 07:16 | 35.60605 | -120.23709 | 34078 ft | 406 kts | 299° |
| 2026-05-04 07:17 | 35.64362 | -120.28942 | 34094 ft | 408 kts | 299° |
| 2026-05-04 07:17 | 35.67985 | -120.34250 | 34077 ft | 401 kts | 293° |
| 2026-05-04 07:18 | 35.69399 | -120.37148 | 34076 ft | 389 kts | 285° |
| 2026-05-04 07:18 | 35.70543 | -120.40163 | 34112 ft | 388 kts | 284° |
| 2026-05-04 07:18 | 35.72841 | -120.46229 | 34110 ft | 392 kts | 285° |
| 2026-05-04 07:19 | 35.75151 | -120.52299 | 34108 ft | 394 kts | 286° |
| 2026-05-04 07:19 | 35.77491 | -120.58441 | 34107 ft | 396 kts | 286° |
| 2026-05-04 07:20 | 35.79841 | -120.64613 | 34098 ft | 398 kts | 286° |
| 2026-05-04 07:20 | 35.82179 | -120.70764 | 34100 ft | 398 kts | 286° |
| 2026-05-04 07:22 | 35.91508 | -120.95445 | 34085 ft | 397 kts | 286° |
| 2026-05-04 07:23 | 35.93838 | -121.01640 | 34095 ft | 397 kts | 286° |
| 2026-05-04 07:23 | 35.96150 | -121.07803 | 34102 ft | 397 kts | 286° |
| 2026-05-04 07:24 | 35.98482 | -121.14032 | 34076 ft | 398 kts | 286° |
| 2026-05-04 07:24 | 35.99631 | -121.17110 | 33683 ft | 404 kts | 286° |
| 2026-05-04 07:24 | 36.00809 | -121.20271 | 33133 ft | 405 kts | 286° |
| 2026-05-04 07:25 | 36.01986 | -121.23430 | 32538 ft | 401 kts | 286° |
| 2026-05-04 07:26 | 36.13420 | -121.41737 | 29238 ft | 408 kts | 318° |
| 2026-05-04 07:27 | 36.15843 | -121.43563 | 28764 ft | 404 kts | 319° |
| 2026-05-04 07:27 | 36.18233 | -121.45372 | 28334 ft | 399 kts | 319° |
| 2026-05-04 07:27 | 36.20576 | -121.47187 | 27929 ft | 406 kts | 319° |
| 2026-05-04 07:27 | 36.23013 | -121.49089 | 27418 ft | 417 kts | 320° |
| 2026-05-04 07:28 | 36.25478 | -121.51008 | 26963 ft | 419 kts | 320° |
| 2026-05-04 07:28 | 36.27928 | -121.52920 | 26463 ft | 418 kts | 321° |
| 2026-05-04 07:28 | 36.30387 | -121.54839 | 25959 ft | 416 kts | 322° |
| 2026-05-04 07:28 | 36.32836 | -121.56756 | 25470 ft | 415 kts | 322° |
| 2026-05-04 07:29 | 36.35276 | -121.58669 | 24978 ft | 414 kts | 323° |
| 2026-05-04 07:29 | 36.37704 | -121.60579 | 24490 ft | 412 kts | 323° |
| 2026-05-04 07:29 | 36.40126 | -121.62485 | 24013 ft | 410 kts | 324° |
| 2026-05-04 07:29 | 36.42529 | -121.64380 | 23460 ft | 408 kts | 326° |
| 2026-05-04 07:30 | 36.44887 | -121.66243 | 22912 ft | 404 kts | 326° |
| 2026-05-04 07:30 | 36.47262 | -121.68112 | 22425 ft | 400 kts | 326° |
| 2026-05-04 07:30 | 36.49608 | -121.69958 | 21939 ft | 396 kts | 326° |
| 2026-05-04 07:30 | 36.51893 | -121.71759 | 21475 ft | 392 kts | 327° |
| 2026-05-04 07:31 | 36.54187 | -121.73567 | 20905 ft | 391 kts | 327° |
| 2026-05-04 07:31 | 36.56490 | -121.75385 | 20258 ft | 392 kts | 327° |
| 2026-05-04 07:33 | 36.72306 | -121.87935 | 15867 ft | 366 kts | 327° |
| 2026-05-04 07:33 | 36.74490 | -121.89522 | 15223 ft | 360 kts | 338° |
| 2026-05-04 07:33 | 36.76865 | -121.90296 | 14619 ft | 354 kts | 349° |
| 2026-05-04 07:33 | 36.79264 | -121.90905 | 14015 ft | 349 kts | 348° |
| 2026-05-04 07:34 | 36.81644 | -121.91526 | 13386 ft | 348 kts | 348° |
| 2026-05-04 07:34 | 36.84013 | -121.92165 | 12723 ft | 346 kts | 348° |
| 2026-05-04 07:34 | 36.86367 | -121.92814 | 12084 ft | 345 kts | 348° |
| 2026-05-04 07:34 | 36.88677 | -121.93459 | 11467 ft | 343 kts | 347° |
| 2026-05-04 07:35 | 36.91005 | -121.94111 | 10851 ft | 341 kts | 347° |
| 2026-05-04 07:35 | 36.93320 | -121.94758 | 10288 ft | 338 kts | 347° |
| 2026-05-04 07:35 | 36.95560 | -121.95404 | 10025 ft | 322 kts | 345° |
| 2026-05-04 07:35 | 36.97669 | -121.96168 | 9795 ft | 307 kts | 343° |
| 2026-05-04 07:36 | 36.99648 | -121.96949 | 9673 ft | 297 kts | 342° |
| 2026-05-04 07:36 | 37.00954 | -121.97472 | 9603 ft | 295 kts | 342° |
| 2026-05-04 07:38 | 37.14749 | -122.02917 | 7990 ft | 298 kts | 343° |
| 2026-05-04 07:38 | 37.16697 | -122.03684 | 7952 ft | 286 kts | 343° |
| 2026-05-04 07:38 | 37.18579 | -122.04423 | 7962 ft | 281 kts | 344° |
| 2026-05-04 07:38 | 37.20427 | -122.05150 | 7958 ft | 282 kts | 344° |
| 2026-05-04 07:39 | 37.22306 | -122.05886 | 7962 ft | 283 kts | 344° |
| 2026-05-04 07:39 | 37.24188 | -122.06624 | 7958 ft | 283 kts | 344° |
| 2026-05-04 07:39 | 37.26079 | -122.07364 | 7975 ft | 283 kts | 344° |
| 2026-05-04 07:39 | 37.27938 | -122.08096 | 7974 ft | 285 kts | 343° |
| 2026-05-04 07:40 | 37.29848 | -122.08853 | 7609 ft | 295 kts | 344° |
| 2026-05-04 07:40 | 37.31839 | -122.09634 | 7165 ft | 300 kts | 344° |
| 2026-05-04 07:40 | 37.33840 | -122.10421 | 6723 ft | 299 kts | 344° |
| 2026-05-04 07:40 | 37.35806 | -122.11195 | 6325 ft | 293 kts | 344° |
| 2026-05-04 07:41 | 37.37706 | -122.11944 | 6016 ft | 284 kts | 344° |
| 2026-05-04 07:41 | 37.39592 | -122.12621 | 5590 ft | 279 kts | 346° |
| 2026-05-04 07:41 | 37.41442 | -122.13241 | 5262 ft | 271 kts | 345° |
| 2026-05-04 07:41 | 37.43238 | -122.13844 | 4951 ft | 264 kts | 345° |
| 2026-05-04 07:42 | 37.44994 | -122.14439 | 4611 ft | 257 kts | 344° |
| 2026-05-04 07:42 | 37.46690 | -122.15002 | 4300 ft | 252 kts | 344° |
| 2026-05-04 07:42 | 37.48324 | -122.15539 | 4194 ft | 233 kts | 344° |
| 2026-05-04 07:42 | 37.49832 | -122.16033 | 4057 ft | 215 kts | 343° |
| 2026-05-04 07:43 | 37.51222 | -122.16488 | 3933 ft | 196 kts | 344° |
| 2026-05-04 07:43 | 37.52504 | -122.16914 | 3553 ft | 191 kts | 340° |
| 2026-05-04 07:43 | 37.53528 | -122.17786 | 3295 ft | 178 kts | 304° |
| 2026-05-04 07:43 | 37.54229 | -122.19091 | 3027 ft | 179 kts | 303° |
| 2026-05-04 07:44 | 37.54905 | -122.20374 | 2778 ft | 168 kts | 299° |
| 2026-05-04 07:44 | 37.55459 | -122.21589 | 2552 ft | 155 kts | 296° |
| 2026-05-04 07:44 | 37.55966 | -122.22784 | 2401 ft | 153 kts | 296° |
| 2026-05-04 07:44 | 37.56458 | -122.23960 | 2163 ft | 148 kts | 296° |
| 2026-05-04 07:45 | 37.56937 | -122.25110 | 1956 ft | 148 kts | 295° |
| 2026-05-04 07:45 | 37.57408 | -122.26241 | 1756 ft | 146 kts | 296° |
| 2026-05-04 07:45 | 37.57879 | -122.27374 | 1551 ft | 146 kts | 296° |
| 2026-05-04 07:45 | 37.58352 | -122.28510 | 1356 ft | 147 kts | 296° |
| 2026-05-04 07:46 | 37.58827 | -122.29652 | 1137 ft | 147 kts | 296° |
| 2026-05-04 07:46 | 37.59305 | -122.30798 | 937 ft | 147 kts | 296° |
| 2026-05-04 07:46 | 37.59778 | -122.31933 | 738 ft | 146 kts | 297° |
| 2026-05-04 07:46 | 37.60244 | -122.33051 | 562 ft | 146 kts | 297° |
| 2026-05-04 07:47 | 37.60721 | -122.34194 | 346 ft | 147 kts | 297° |
| 2026-05-04 07:47 | 37.61190 | -122.35318 | 144 ft | 143 kts | 297° |
| 2026-05-04 07:47 | 37.61665 | -122.36414 | 17 ft | 138 kts | 295° |
| 2026-05-04 07:49 | 37.62142 | -122.38312 | 21 ft | 10 kts | 197° |
| 2026-05-04 07:49 | 37.62079 | -122.38336 | 22 ft | 8 kts | 196° |
| 2026-05-04 07:49 | 37.62029 | -122.38333 | 23 ft | 7 kts | 147° |
| 2026-05-04 07:50 | 37.62006 | -122.38292 | 23 ft | 4 kts | 116° |
| 2026-05-04 07:50 | 37.61994 | -122.38260 | 24 ft | 4 kts | 115° |
| 2026-05-04 07:50 | 37.61977 | -122.38230 | 22 ft | 4 kts | 136° |
| 2026-05-04 07:50 | 37.61948 | -122.38218 | 21 ft | 5 kts | 180° |
| 2026-05-04 07:51 | 37.61914 | -122.38230 | 22 ft | 6 kts | 202° |
| 2026-05-04 07:51 | 37.61873 | -122.38255 | 20 ft | 8 kts | 207° |
| 2026-05-04 07:51 | 37.61830 | -122.38275 | 18 ft | 5 kts | 174° |
| 2026-05-04 07:51 | 37.61807 | -122.38243 | 17 ft | 5 kts | 117° |
| 2026-05-04 07:52 | 37.61798 | -122.38223 | 17 ft | 0 kts | 119° |
| 2026-05-04 07:52 | 37.61798 | -122.38221 | 16 ft | 0 kts | 119° |